sensor_id;sensor_type;location;lat;lon;timestamp;P1;durP1;ratioP1;P2;durP2;ratioP2
82415;SDS011;72058;47.782;10.618;2023-08-20T00:01:43;9.65;;;6.90;;
82415;SDS011;72058;47.782;10.618;2023-08-20T00:04:01;7.88;;;7.07;;
82415;SDS011;72058;47.782;10.618;2023-08-20T00:06:28;11.38;;;7.25;;
82415;SDS011;72058;47.782;10.618;2023-08-20T00:08:53;7.40;;;6.68;;
82415;SDS011;72058;47.782;10.618;2023-08-20T00:11:19;11.13;;;7.37;;
82415;SDS011;72058;47.782;10.618;2023-08-20T00:13:44;8.27;;;7.40;;
82415;SDS011;72058;47.782;10.618;2023-08-20T00:16:10;9.80;;;7.07;;
82415;SDS011;72058;47.782;10.618;2023-08-20T00:18:36;7.93;;;6.85;;
82415;SDS011;72058;47.782;10.618;2023-08-20T00:21:03;7.82;;;7.00;;
82415;SDS011;72058;47.782;10.618;2023-08-20T00:23:29;9.25;;;7.15;;
82415;SDS011;72058;47.782;10.618;2023-08-20T00:25:55;8.73;;;7.00;;
82415;SDS011;72058;47.782;10.618;2023-08-20T00:28:20;7.47;;;6.78;;
82415;SDS011;72058;47.782;10.618;2023-08-20T00:30:46;7.78;;;6.97;;
82415;SDS011;72058;47.782;10.618;2023-08-20T00:33:11;7.53;;;6.75;;
82415;SDS011;72058;47.782;10.618;2023-08-20T00:35:37;7.28;;;6.25;;
82415;SDS011;72058;47.782;10.618;2023-08-20T00:38:02;7.95;;;7.05;;
82415;SDS011;72058;47.782;10.618;2023-08-20T00:40:28;8.13;;;6.90;;
82415;SDS011;72058;47.782;10.618;2023-08-20T00:42:55;8.30;;;6.60;;
82415;SDS011;72058;47.782;10.618;2023-08-20T00:45:21;7.10;;;6.30;;
82415;SDS011;72058;47.782;10.618;2023-08-20T00:47:47;7.90;;;6.22;;
82415;SDS011;72058;47.782;10.618;2023-08-20T00:50:13;8.02;;;6.55;;
82415;SDS011;72058;47.782;10.618;2023-08-20T00:52:39;7.25;;;6.55;;
82415;SDS011;72058;47.782;10.618;2023-08-20T00:55:08;7.57;;;6.72;;
82415;SDS011;72058;47.782;10.618;2023-08-20T00:57:36;7.45;;;6.75;;
82415;SDS011;72058;47.782;10.618;2023-08-20T01:00:02;8.05;;;7.25;;
82415;SDS011;72058;47.782;10.618;2023-08-20T01:02:32;9.82;;;6.50;;
82415;SDS011;72058;47.782;10.618;2023-08-20T01:04:59;7.82;;;7.07;;
82415;SDS011;72058;47.782;10.618;2023-08-20T01:12:50;8.75;;;7.25;;
82415;SDS011;72058;47.782;10.618;2023-08-20T01:15:17;8.10;;;6.85;;
82415;SDS011;72058;47.782;10.618;2023-08-20T01:17:42;9.70;;;6.63;;
82415;SDS011;72058;47.782;10.618;2023-08-20T01:20:11;7.50;;;6.78;;
82415;SDS011;72058;47.782;10.618;2023-08-20T01:22:54;8.52;;;7.60;;
82415;SDS011;72058;47.782;10.618;2023-08-20T01:30:46;8.07;;;7.28;;
82415;SDS011;72058;47.782;10.618;2023-08-20T01:33:12;8.57;;;7.22;;
82415;SDS011;72058;47.782;10.618;2023-08-20T01:35:38;8.30;;;7.20;;
82415;SDS011;72058;47.782;10.618;2023-08-20T01:38:04;7.75;;;7.00;;
82415;SDS011;72058;47.782;10.618;2023-08-20T01:40:29;7.40;;;6.40;;
82415;SDS011;72058;47.782;10.618;2023-08-20T01:42:56;9.30;;;7.03;;
82415;SDS011;72058;47.782;10.618;2023-08-20T01:47:47;7.57;;;6.80;;
82415;SDS011;72058;47.782;10.618;2023-08-20T01:50:12;7.88;;;6.82;;
82415;SDS011;72058;47.782;10.618;2023-08-20T01:52:38;10.45;;;7.00;;
82415;SDS011;72058;47.782;10.618;2023-08-20T01:55:03;10.07;;;6.47;;
82415;SDS011;72058;47.782;10.618;2023-08-20T01:57:29;11.77;;;7.80;;
82415;SDS011;72058;47.782;10.618;2023-08-20T01:59:55;9.20;;;8.25;;
82415;SDS011;72058;47.782;10.618;2023-08-20T02:02:21;10.57;;;8.18;;
82415;SDS011;72058;47.782;10.618;2023-08-20T02:04:46;10.55;;;7.75;;
82415;SDS011;72058;47.782;10.618;2023-08-20T02:07:12;9.77;;;7.80;;
82415;SDS011;72058;47.782;10.618;2023-08-20T02:09:37;7.80;;;6.97;;
82415;SDS011;72058;47.782;10.618;2023-08-20T02:12:02;11.02;;;6.85;;
82415;SDS011;72058;47.782;10.618;2023-08-20T02:14:28;9.45;;;7.50;;
82415;SDS011;72058;47.782;10.618;2023-08-20T02:16:54;7.78;;;7.00;;
82415;SDS011;72058;47.782;10.618;2023-08-20T02:19:19;9.93;;;7.30;;
82415;SDS011;72058;47.782;10.618;2023-08-20T02:21:44;8.80;;;7.90;;
82415;SDS011;72058;47.782;10.618;2023-08-20T02:24:10;11.98;;;7.68;;
82415;SDS011;72058;47.782;10.618;2023-08-20T02:26:36;8.93;;;8.02;;
82415;SDS011;72058;47.782;10.618;2023-08-20T02:29:01;10.88;;;8.02;;
82415;SDS011;72058;47.782;10.618;2023-08-20T02:33:52;8.47;;;7.40;;
82415;SDS011;72058;47.782;10.618;2023-08-20T02:36:18;8.40;;;7.20;;
82415;SDS011;72058;47.782;10.618;2023-08-20T02:38:44;8.85;;;7.32;;
82415;SDS011;72058;47.782;10.618;2023-08-20T02:41:10;8.48;;;7.50;;
82415;SDS011;72058;47.782;10.618;2023-08-20T02:43:37;9.90;;;8.73;;
82415;SDS011;72058;47.782;10.618;2023-08-20T02:46:02;8.73;;;7.87;;
82415;SDS011;72058;47.782;10.618;2023-08-20T02:48:27;7.33;;;6.63;;
82415;SDS011;72058;47.782;10.618;2023-08-20T02:50:54;8.48;;;7.63;;
82415;SDS011;72058;47.782;10.618;2023-08-20T02:53:19;9.25;;;7.47;;
82415;SDS011;72058;47.782;10.618;2023-08-20T02:55:45;8.48;;;7.68;;
82415;SDS011;72058;47.782;10.618;2023-08-20T02:58:10;8.40;;;6.72;;
82415;SDS011;72058;47.782;10.618;2023-08-20T03:00:36;8.82;;;6.95;;
82415;SDS011;72058;47.782;10.618;2023-08-20T03:03:01;9.45;;;7.43;;
82415;SDS011;72058;47.782;10.618;2023-08-20T03:05:32;7.75;;;6.95;;
82415;SDS011;72058;47.782;10.618;2023-08-20T03:07:58;9.70;;;7.25;;
82415;SDS011;72058;47.782;10.618;2023-08-20T03:10:23;8.52;;;7.72;;
82415;SDS011;72058;47.782;10.618;2023-08-20T03:12:49;8.57;;;7.68;;
82415;SDS011;72058;47.782;10.618;2023-08-20T03:15:14;11.48;;;7.95;;
82415;SDS011;72058;47.782;10.618;2023-08-20T03:17:40;8.55;;;7.30;;
82415;SDS011;72058;47.782;10.618;2023-08-20T03:20:06;9.00;;;7.55;;
82415;SDS011;72058;47.782;10.618;2023-08-20T03:22:32;8.20;;;7.32;;
82415;SDS011;72058;47.782;10.618;2023-08-20T03:24:58;8.85;;;7.30;;
82415;SDS011;72058;47.782;10.618;2023-08-20T03:27:23;8.80;;;7.90;;
82415;SDS011;72058;47.782;10.618;2023-08-20T03:29:49;8.88;;;7.43;;
82415;SDS011;72058;47.782;10.618;2023-08-20T03:32:15;8.27;;;7.47;;
82415;SDS011;72058;47.782;10.618;2023-08-20T03:37:05;8.10;;;7.20;;
82415;SDS011;72058;47.782;10.618;2023-08-20T03:39:31;9.75;;;7.35;;
82415;SDS011;72058;47.782;10.618;2023-08-20T03:41:57;9.20;;;7.20;;
82415;SDS011;72058;47.782;10.618;2023-08-20T03:44:22;8.55;;;7.38;;
82415;SDS011;72058;47.782;10.618;2023-08-20T03:46:49;9.90;;;7.25;;
82415;SDS011;72058;47.782;10.618;2023-08-20T03:49:14;8.80;;;6.75;;
82415;SDS011;72058;47.782;10.618;2023-08-20T03:51:39;8.40;;;7.57;;
82415;SDS011;72058;47.782;10.618;2023-08-20T03:54:07;8.07;;;7.28;;
82415;SDS011;72058;47.782;10.618;2023-08-20T03:56:33;10.10;;;8.25;;
82415;SDS011;72058;47.782;10.618;2023-08-20T03:58:58;8.53;;;7.23;;
82415;SDS011;72058;47.782;10.618;2023-08-20T04:01:23;7.93;;;7.13;;
82415;SDS011;72058;47.782;10.618;2023-08-20T04:03:49;8.30;;;7.43;;
82415;SDS011;72058;47.782;10.618;2023-08-20T04:06:14;8.07;;;7.30;;
82415;SDS011;72058;47.782;10.618;2023-08-20T04:08:40;9.93;;;6.93;;
82415;SDS011;72058;47.782;10.618;2023-08-20T04:11:05;9.23;;;6.88;;
82415;SDS011;72058;47.782;10.618;2023-08-20T04:13:31;8.65;;;7.07;;
82415;SDS011;72058;47.782;10.618;2023-08-20T04:15:56;9.23;;;7.13;;
82415;SDS011;72058;47.782;10.618;2023-08-20T04:18:22;6.90;;;6.20;;
82415;SDS011;72058;47.782;10.618;2023-08-20T04:20:50;7.70;;;6.83;;
82415;SDS011;72058;47.782;10.618;2023-08-20T04:23:17;8.25;;;7.05;;
82415;SDS011;72058;47.782;10.618;2023-08-20T04:25:43;10.07;;;7.05;;
82415;SDS011;72058;47.782;10.618;2023-08-20T04:28:09;10.20;;;7.63;;
82415;SDS011;72058;47.782;10.618;2023-08-20T04:30:35;9.52;;;7.63;;
82415;SDS011;72058;47.782;10.618;2023-08-20T04:33:01;8.00;;;7.18;;
82415;SDS011;72058;47.782;10.618;2023-08-20T04:35:26;10.13;;;8.02;;
82415;SDS011;72058;47.782;10.618;2023-08-20T04:37:52;10.98;;;7.40;;
82415;SDS011;72058;47.782;10.618;2023-08-20T04:40:17;7.78;;;6.95;;
82415;SDS011;72058;47.782;10.618;2023-08-20T04:42:43;8.40;;;7.40;;
82415;SDS011;72058;47.782;10.618;2023-08-20T04:45:08;11.30;;;7.32;;
82415;SDS011;72058;47.782;10.618;2023-08-20T04:47:35;9.30;;;7.28;;
82415;SDS011;72058;47.782;10.618;2023-08-20T04:50:00;7.60;;;6.60;;
82415;SDS011;72058;47.782;10.618;2023-08-20T04:52:26;9.30;;;6.63;;
82415;SDS011;72058;47.782;10.618;2023-08-20T04:54:51;7.53;;;6.55;;
82415;SDS011;72058;47.782;10.618;2023-08-20T04:57:17;8.43;;;7.18;;
82415;SDS011;72058;47.782;10.618;2023-08-20T04:59:42;8.10;;;7.30;;
82415;SDS011;72058;47.782;10.618;2023-08-20T05:02:13;8.68;;;7.22;;
82415;SDS011;72058;47.782;10.618;2023-08-20T05:04:39;9.35;;;7.38;;
82415;SDS011;72058;47.782;10.618;2023-08-20T05:09:30;8.07;;;7.28;;
82415;SDS011;72058;47.782;10.618;2023-08-20T05:11:56;8.02;;;7.22;;
82415;SDS011;72058;47.782;10.618;2023-08-20T05:14:21;7.20;;;6.43;;
82415;SDS011;72058;47.782;10.618;2023-08-20T05:16:46;8.57;;;6.97;;
82415;SDS011;72058;47.782;10.618;2023-08-20T05:19:12;10.60;;;6.97;;
82415;SDS011;72058;47.782;10.618;2023-08-20T05:21:37;7.80;;;6.45;;
82415;SDS011;72058;47.782;10.618;2023-08-20T05:24:03;7.60;;;6.63;;
82415;SDS011;72058;47.782;10.618;2023-08-20T05:26:28;7.78;;;6.93;;
82415;SDS011;72058;47.782;10.618;2023-08-20T05:28:54;8.05;;;7.10;;
82415;SDS011;72058;47.782;10.618;2023-08-20T05:31:19;8.38;;;6.88;;
82415;SDS011;72058;47.782;10.618;2023-08-20T05:33:45;8.05;;;7.25;;
82415;SDS011;72058;47.782;10.618;2023-08-20T05:36:10;7.22;;;6.47;;
82415;SDS011;72058;47.782;10.618;2023-08-20T05:38:35;7.47;;;6.68;;
82415;SDS011;72058;47.782;10.618;2023-08-20T05:41:01;8.18;;;6.03;;
82415;SDS011;72058;47.782;10.618;2023-08-20T05:43:26;6.80;;;6.10;;
82415;SDS011;72058;47.782;10.618;2023-08-20T05:45:51;8.90;;;6.18;;
82415;SDS011;72058;47.782;10.618;2023-08-20T05:48:17;9.77;;;6.77;;
82415;SDS011;72058;47.782;10.618;2023-08-20T05:50:42;7.73;;;6.83;;
82415;SDS011;72058;47.782;10.618;2023-08-20T05:53:07;8.00;;;6.97;;
82415;SDS011;72058;47.782;10.618;2023-08-20T05:55:33;7.97;;;7.03;;
82415;SDS011;72058;47.782;10.618;2023-08-20T05:57:58;9.52;;;7.57;;
82415;SDS011;72058;47.782;10.618;2023-08-20T06:00:23;7.50;;;6.63;;
82415;SDS011;72058;47.782;10.618;2023-08-20T06:02:49;8.10;;;6.87;;
82415;SDS011;72058;47.782;10.618;2023-08-20T06:05:14;7.15;;;6.38;;
82415;SDS011;72058;47.782;10.618;2023-08-20T06:07:39;8.00;;;7.15;;
82415;SDS011;72058;47.782;10.618;2023-08-20T06:10:05;10.35;;;6.65;;
82415;SDS011;72058;47.782;10.618;2023-08-20T06:12:32;6.55;;;5.95;;
82415;SDS011;72058;47.782;10.618;2023-08-20T06:14:57;8.68;;;7.10;;
82415;SDS011;72058;47.782;10.618;2023-08-20T06:17:22;7.90;;;6.60;;
82415;SDS011;72058;47.782;10.618;2023-08-20T06:19:48;9.25;;;7.10;;
82415;SDS011;72058;47.782;10.618;2023-08-20T06:22:14;8.80;;;6.93;;
82415;SDS011;72058;47.782;10.618;2023-08-20T06:24:39;7.68;;;6.18;;
82415;SDS011;72058;47.782;10.618;2023-08-20T06:29:29;8.67;;;6.50;;
82415;SDS011;72058;47.782;10.618;2023-08-20T06:31:55;10.80;;;6.87;;
82415;SDS011;72058;47.782;10.618;2023-08-20T06:34:20;11.75;;;6.03;;
82415;SDS011;72058;47.782;10.618;2023-08-20T06:36:46;7.33;;;6.43;;
82415;SDS011;72058;47.782;10.618;2023-08-20T06:39:12;7.43;;;5.95;;
82415;SDS011;72058;47.782;10.618;2023-08-20T06:41:37;8.93;;;6.32;;
82415;SDS011;72058;47.782;10.618;2023-08-20T06:44:03;7.70;;;6.30;;
82415;SDS011;72058;47.782;10.618;2023-08-20T06:46:28;6.93;;;5.75;;
82415;SDS011;72058;47.782;10.618;2023-08-20T06:48:54;7.32;;;6.07;;
82415;SDS011;72058;47.782;10.618;2023-08-20T06:53:46;7.22;;;5.90;;
82415;SDS011;72058;47.782;10.618;2023-08-20T06:58:40;7.23;;;6.53;;
82415;SDS011;72058;47.782;10.618;2023-08-20T07:01:06;10.63;;;6.05;;
82415;SDS011;72058;47.782;10.618;2023-08-20T07:06:07;7.05;;;6.35;;
82415;SDS011;72058;47.782;10.618;2023-08-20T07:08:39;9.65;;;6.45;;
82415;SDS011;72058;47.782;10.618;2023-08-20T07:11:05;7.85;;;7.03;;
82415;SDS011;72058;47.782;10.618;2023-08-20T07:13:31;7.00;;;6.30;;
82415;SDS011;72058;47.782;10.618;2023-08-20T07:15:57;7.68;;;6.18;;
82415;SDS011;72058;47.782;10.618;2023-08-20T07:20:49;7.88;;;6.75;;
82415;SDS011;72058;47.782;10.618;2023-08-20T07:23:15;7.13;;;6.40;;
82415;SDS011;72058;47.782;10.618;2023-08-20T07:28:09;8.93;;;6.18;;
82415;SDS011;72058;47.782;10.618;2023-08-20T07:30:35;9.57;;;6.00;;
82415;SDS011;72058;47.782;10.618;2023-08-20T07:33:00;9.23;;;6.68;;
82415;SDS011;72058;47.782;10.618;2023-08-20T07:35:27;8.43;;;7.55;;
82415;SDS011;72058;47.782;10.618;2023-08-20T07:40:17;6.87;;;6.00;;
82415;SDS011;72058;47.782;10.618;2023-08-20T07:45:09;6.53;;;5.67;;
82415;SDS011;72058;47.782;10.618;2023-08-20T07:50:03;6.32;;;5.72;;
82415;SDS011;72058;47.782;10.618;2023-08-20T07:52:29;7.93;;;5.90;;
82415;SDS011;72058;47.782;10.618;2023-08-20T07:54:55;8.85;;;6.47;;
82415;SDS011;72058;47.782;10.618;2023-08-20T07:59:46;8.07;;;5.47;;
82415;SDS011;72058;47.782;10.618;2023-08-20T08:04:37;7.27;;;6.13;;
82415;SDS011;72058;47.782;10.618;2023-08-20T08:09:29;7.87;;;6.13;;
82415;SDS011;72058;47.782;10.618;2023-08-20T08:11:56;12.40;;;8.68;;
82415;SDS011;72058;47.782;10.618;2023-08-20T08:14:23;11.35;;;8.15;;
82415;SDS011;72058;47.782;10.618;2023-08-20T08:16:48;11.77;;;9.43;;
82415;SDS011;72058;47.782;10.618;2023-08-20T08:19:15;11.55;;;9.32;;
82415;SDS011;72058;47.782;10.618;2023-08-20T08:21:42;10.55;;;7.43;;
82415;SDS011;72058;47.782;10.618;2023-08-20T08:24:08;11.25;;;9.20;;
82415;SDS011;72058;47.782;10.618;2023-08-20T08:26:34;8.77;;;7.50;;
82415;SDS011;72058;47.782;10.618;2023-08-20T08:29:01;7.65;;;6.95;;
82415;SDS011;72058;47.782;10.618;2023-08-20T08:31:30;8.68;;;6.97;;
82415;SDS011;72058;47.782;10.618;2023-08-20T08:33:55;7.03;;;5.95;;
82415;SDS011;72058;47.782;10.618;2023-08-20T08:36:21;9.00;;;7.20;;
82415;SDS011;72058;47.782;10.618;2023-08-20T08:41:12;9.67;;;8.37;;
82415;SDS011;72058;47.782;10.618;2023-08-20T08:43:38;9.82;;;7.97;;
82415;SDS011;72058;47.782;10.618;2023-08-20T08:46:23;10.82;;;7.97;;
82415;SDS011;72058;47.782;10.618;2023-08-20T08:48:49;6.60;;;5.93;;
82415;SDS011;72058;47.782;10.618;2023-08-20T08:51:15;10.63;;;8.07;;
82415;SDS011;72058;47.782;10.618;2023-08-20T08:53:44;7.82;;;6.05;;
82415;SDS011;72058;47.782;10.618;2023-08-20T08:56:11;8.32;;;6.40;;
82415;SDS011;72058;47.782;10.618;2023-08-20T09:01:02;7.47;;;6.00;;
82415;SDS011;72058;47.782;10.618;2023-08-20T09:03:28;8.27;;;5.50;;
82415;SDS011;72058;47.782;10.618;2023-08-20T09:06:00;7.45;;;5.47;;
82415;SDS011;72058;47.782;10.618;2023-08-20T09:08:29;6.82;;;5.55;;
82415;SDS011;72058;47.782;10.618;2023-08-20T09:10:56;11.20;;;6.00;;
82415;SDS011;72058;47.782;10.618;2023-08-20T09:13:24;9.02;;;6.18;;
82415;SDS011;72058;47.782;10.618;2023-08-20T09:15:57;7.25;;;6.30;;
82415;SDS011;72058;47.782;10.618;2023-08-20T09:20:48;6.23;;;5.63;;
82415;SDS011;72058;47.782;10.618;2023-08-20T09:23:14;7.72;;;6.45;;
82415;SDS011;72058;47.782;10.618;2023-08-20T09:25:40;7.00;;;6.30;;
82415;SDS011;72058;47.782;10.618;2023-08-20T09:28:06;8.80;;;6.10;;
82415;SDS011;72058;47.782;10.618;2023-08-20T09:30:32;8.85;;;7.05;;
82415;SDS011;72058;47.782;10.618;2023-08-20T09:35:29;6.97;;;6.07;;
82415;SDS011;72058;47.782;10.618;2023-08-20T09:37:59;9.35;;;6.57;;
82415;SDS011;72058;47.782;10.618;2023-08-20T09:40:28;10.20;;;6.30;;
82415;SDS011;72058;47.782;10.618;2023-08-20T09:42:54;7.32;;;6.32;;
82415;SDS011;72058;47.782;10.618;2023-08-20T09:45:21;8.40;;;5.63;;
82415;SDS011;72058;47.782;10.618;2023-08-20T09:47:48;7.40;;;5.57;;
82415;SDS011;72058;47.782;10.618;2023-08-20T09:50:15;10.07;;;6.88;;
82415;SDS011;72058;47.782;10.618;2023-08-20T09:53:03;7.90;;;6.78;;
82415;SDS011;72058;47.782;10.618;2023-08-20T09:55:32;9.45;;;7.28;;
82415;SDS011;72058;47.782;10.618;2023-08-20T09:58:01;6.70;;;6.00;;
82415;SDS011;72058;47.782;10.618;2023-08-20T10:00:28;8.25;;;5.88;;
82415;SDS011;72058;47.782;10.618;2023-08-20T10:05:19;8.20;;;6.30;;
82415;SDS011;72058;47.782;10.618;2023-08-20T10:07:46;7.28;;;6.47;;
82415;SDS011;72058;47.782;10.618;2023-08-20T10:10:12;7.03;;;6.22;;
82415;SDS011;72058;47.782;10.618;2023-08-20T10:12:38;7.93;;;6.18;;
82415;SDS011;72058;47.782;10.618;2023-08-20T10:15:04;9.32;;;5.97;;
82415;SDS011;72058;47.782;10.618;2023-08-20T10:17:32;8.98;;;6.80;;
82415;SDS011;72058;47.782;10.618;2023-08-20T10:19:59;7.95;;;6.30;;
82415;SDS011;72058;47.782;10.618;2023-08-20T10:22:32;6.85;;;6.13;;
82415;SDS011;72058;47.782;10.618;2023-08-20T10:24:59;6.93;;;6.07;;
82415;SDS011;72058;47.782;10.618;2023-08-20T10:27:32;9.10;;;6.10;;
82415;SDS011;72058;47.782;10.618;2023-08-20T10:30:00;7.75;;;6.22;;
82415;SDS011;72058;47.782;10.618;2023-08-20T10:35:09;7.65;;;6.63;;
82415;SDS011;72058;47.782;10.618;2023-08-20T10:40:02;8.80;;;6.32;;
82415;SDS011;72058;47.782;10.618;2023-08-20T10:42:29;7.60;;;5.95;;
82415;SDS011;72058;47.782;10.618;2023-08-20T10:47:24;6.93;;;6.10;;
82415;SDS011;72058;47.782;10.618;2023-08-20T10:52:24;8.10;;;6.10;;
82415;SDS011;72058;47.782;10.618;2023-08-20T10:54:50;7.13;;;5.82;;
82415;SDS011;72058;47.782;10.618;2023-08-20T10:57:17;7.28;;;5.90;;
82415;SDS011;72058;47.782;10.618;2023-08-20T10:59:42;7.45;;;5.50;;
82415;SDS011;72058;47.782;10.618;2023-08-20T11:02:11;8.30;;;6.30;;
82415;SDS011;72058;47.782;10.618;2023-08-20T11:04:46;7.55;;;5.72;;
82415;SDS011;72058;47.782;10.618;2023-08-20T11:07:11;7.47;;;5.68;;
82415;SDS011;72058;47.782;10.618;2023-08-20T11:09:43;6.00;;;5.40;;
82415;SDS011;72058;47.782;10.618;2023-08-20T11:12:09;8.48;;;5.85;;
82415;SDS011;72058;47.782;10.618;2023-08-20T11:14:35;7.18;;;5.93;;
82415;SDS011;72058;47.782;10.618;2023-08-20T11:17:00;6.72;;;5.43;;
82415;SDS011;72058;47.782;10.618;2023-08-20T11:19:26;7.38;;;5.72;;
82415;SDS011;72058;47.782;10.618;2023-08-20T11:21:53;7.38;;;5.70;;
82415;SDS011;72058;47.782;10.618;2023-08-20T11:24:20;7.43;;;5.15;;
82415;SDS011;72058;47.782;10.618;2023-08-20T11:26:46;8.45;;;5.15;;
82415;SDS011;72058;47.782;10.618;2023-08-20T11:29:12;8.02;;;6.13;;
82415;SDS011;72058;47.782;10.618;2023-08-20T11:31:40;11.45;;;5.43;;
82415;SDS011;72058;47.782;10.618;2023-08-20T11:34:06;7.47;;;5.13;;
82415;SDS011;72058;47.782;10.618;2023-08-20T11:36:35;7.60;;;4.88;;
82415;SDS011;72058;47.782;10.618;2023-08-20T11:39:01;4.85;;;4.35;;
82415;SDS011;72058;47.782;10.618;2023-08-20T11:43:52;6.15;;;4.78;;
82415;SDS011;72058;47.782;10.618;2023-08-20T11:46:19;4.45;;;4.05;;
82415;SDS011;72058;47.782;10.618;2023-08-20T11:51:23;7.70;;;4.63;;
82415;SDS011;72058;47.782;10.618;2023-08-20T11:53:49;6.07;;;4.25;;
82415;SDS011;72058;47.782;10.618;2023-08-20T11:56:14;7.28;;;4.05;;
82415;SDS011;72058;47.782;10.618;2023-08-20T11:58:40;6.43;;;4.22;;
82415;SDS011;72058;47.782;10.618;2023-08-20T12:01:07;8.53;;;4.60;;
82415;SDS011;72058;47.782;10.618;2023-08-20T12:03:34;6.82;;;4.22;;
82415;SDS011;72058;47.782;10.618;2023-08-20T12:06:16;5.85;;;4.22;;
82415;SDS011;72058;47.782;10.618;2023-08-20T12:08:42;8.25;;;5.28;;
82415;SDS011;72058;47.782;10.618;2023-08-20T12:11:08;5.53;;;4.70;;
82415;SDS011;72058;47.782;10.618;2023-08-20T12:13:34;6.22;;;4.35;;
82415;SDS011;72058;47.782;10.618;2023-08-20T12:16:00;7.20;;;4.13;;
82415;SDS011;72058;47.782;10.618;2023-08-20T12:18:25;7.13;;;4.13;;
82415;SDS011;72058;47.782;10.618;2023-08-20T12:20:50;5.20;;;3.90;;
82415;SDS011;72058;47.782;10.618;2023-08-20T12:23:16;5.32;;;4.00;;
82415;SDS011;72058;47.782;10.618;2023-08-20T12:25:41;7.88;;;4.53;;
82415;SDS011;72058;47.782;10.618;2023-08-20T12:28:07;5.80;;;3.85;;
82415;SDS011;72058;47.782;10.618;2023-08-20T12:30:33;7.25;;;4.45;;
82415;SDS011;72058;47.782;10.618;2023-08-20T12:33:00;6.05;;;3.63;;
82415;SDS011;72058;47.782;10.618;2023-08-20T12:35:25;4.97;;;3.95;;
82415;SDS011;72058;47.782;10.618;2023-08-20T12:37:50;7.25;;;4.22;;
82415;SDS011;72058;47.782;10.618;2023-08-20T12:40:16;5.95;;;4.07;;
82415;SDS011;72058;47.782;10.618;2023-08-20T12:42:41;5.78;;;3.85;;
82415;SDS011;72058;47.782;10.618;2023-08-20T12:45:08;6.28;;;4.22;;
82415;SDS011;72058;47.782;10.618;2023-08-20T12:47:35;6.85;;;3.65;;
82415;SDS011;72058;47.782;10.618;2023-08-20T12:50:00;5.47;;;3.88;;
82415;SDS011;72058;47.782;10.618;2023-08-20T12:54:51;5.33;;;3.80;;
82415;SDS011;72058;47.782;10.618;2023-08-20T12:57:16;5.90;;;3.20;;
82415;SDS011;72058;47.782;10.618;2023-08-20T12:59:42;5.10;;;3.70;;
82415;SDS011;72058;47.782;10.618;2023-08-20T13:02:07;4.72;;;3.53;;
82415;SDS011;72058;47.782;10.618;2023-08-20T13:04:33;4.30;;;3.10;;
82415;SDS011;72058;47.782;10.618;2023-08-20T13:06:59;5.32;;;3.20;;
82415;SDS011;72058;47.782;10.618;2023-08-20T13:09:24;5.45;;;3.90;;
82415;SDS011;72058;47.782;10.618;2023-08-20T13:11:51;6.35;;;3.60;;
82415;SDS011;72058;47.782;10.618;2023-08-20T13:14:20;4.90;;;3.60;;
82415;SDS011;72058;47.782;10.618;2023-08-20T13:16:46;6.03;;;3.92;;
82415;SDS011;72058;47.782;10.618;2023-08-20T13:19:11;3.75;;;3.35;;
82415;SDS011;72058;47.782;10.618;2023-08-20T13:21:37;7.68;;;4.53;;
82415;SDS011;72058;47.782;10.618;2023-08-20T13:24:02;6.30;;;3.83;;
82415;SDS011;72058;47.782;10.618;2023-08-20T13:26:28;5.30;;;3.70;;
82415;SDS011;72058;47.782;10.618;2023-08-20T13:28:53;4.70;;;3.77;;
82415;SDS011;72058;47.782;10.618;2023-08-20T13:31:19;5.05;;;4.00;;
82415;SDS011;72058;47.782;10.618;2023-08-20T13:33:44;7.43;;;4.07;;
82415;SDS011;72058;47.782;10.618;2023-08-20T13:36:10;6.53;;;4.10;;
82415;SDS011;72058;47.782;10.618;2023-08-20T13:38:35;4.30;;;3.90;;
82415;SDS011;72058;47.782;10.618;2023-08-20T13:41:00;5.47;;;3.63;;
82415;SDS011;72058;47.782;10.618;2023-08-20T13:43:26;4.50;;;3.63;;
82415;SDS011;72058;47.782;10.618;2023-08-20T13:45:51;4.72;;;3.90;;
82415;SDS011;72058;47.782;10.618;2023-08-20T13:48:16;6.50;;;3.77;;
82415;SDS011;72058;47.782;10.618;2023-08-20T13:50:42;5.30;;;3.70;;
82415;SDS011;72058;47.782;10.618;2023-08-20T13:53:07;5.25;;;3.40;;
82415;SDS011;72058;47.782;10.618;2023-08-20T13:55:32;7.32;;;3.67;;
82415;SDS011;72058;47.782;10.618;2023-08-20T13:57:58;7.03;;;4.10;;
82415;SDS011;72058;47.782;10.618;2023-08-20T14:00:23;6.40;;;3.75;;
82415;SDS011;72058;47.782;10.618;2023-08-20T14:02:49;6.75;;;4.10;;
82415;SDS011;72058;47.782;10.618;2023-08-20T14:05:14;4.25;;;3.85;;
82415;SDS011;72058;47.782;10.618;2023-08-20T14:07:39;7.30;;;4.30;;
82415;SDS011;72058;47.782;10.618;2023-08-20T14:10:06;6.60;;;3.97;;
82415;SDS011;72058;47.782;10.618;2023-08-20T14:12:33;4.38;;;3.55;;
82415;SDS011;72058;47.782;10.618;2023-08-20T14:14:58;5.97;;;4.13;;
82415;SDS011;72058;47.782;10.618;2023-08-20T14:17:24;6.13;;;3.90;;
82415;SDS011;72058;47.782;10.618;2023-08-20T14:19:50;5.47;;;3.70;;
82415;SDS011;72058;47.782;10.618;2023-08-20T14:22:15;6.20;;;3.75;;
82415;SDS011;72058;47.782;10.618;2023-08-20T14:24:41;6.80;;;4.30;;
82415;SDS011;72058;47.782;10.618;2023-08-20T14:27:06;6.30;;;4.28;;
82415;SDS011;72058;47.782;10.618;2023-08-20T14:29:32;4.70;;;3.95;;
82415;SDS011;72058;47.782;10.618;2023-08-20T14:31:58;5.88;;;3.65;;
82415;SDS011;72058;47.782;10.618;2023-08-20T14:34:23;4.30;;;3.77;;
82415;SDS011;72058;47.782;10.618;2023-08-20T14:36:48;7.30;;;4.20;;
82415;SDS011;72058;47.782;10.618;2023-08-20T14:39:14;8.77;;;3.80;;
82415;SDS011;72058;47.782;10.618;2023-08-20T14:41:39;6.25;;;4.30;;
82415;SDS011;72058;47.782;10.618;2023-08-20T14:44:04;4.40;;;3.50;;
82415;SDS011;72058;47.782;10.618;2023-08-20T14:46:30;5.20;;;3.65;;
82415;SDS011;72058;47.782;10.618;2023-08-20T14:48:56;4.63;;;3.78;;
82415;SDS011;72058;47.782;10.618;2023-08-20T14:51:21;4.90;;;3.67;;
82415;SDS011;72058;47.782;10.618;2023-08-20T14:53:47;6.68;;;4.07;;
82415;SDS011;72058;47.782;10.618;2023-08-20T14:56:12;5.53;;;3.70;;
82415;SDS011;72058;47.782;10.618;2023-08-20T14:58:38;5.13;;;3.47;;
82415;SDS011;72058;47.782;10.618;2023-08-20T15:01:03;4.20;;;3.67;;
82415;SDS011;72058;47.782;10.618;2023-08-20T15:03:28;4.80;;;3.78;;
82415;SDS011;72058;47.782;10.618;2023-08-20T15:05:54;4.72;;;3.45;;
82415;SDS011;72058;47.782;10.618;2023-08-20T15:08:19;4.97;;;3.80;;
82415;SDS011;72058;47.782;10.618;2023-08-20T15:10:57;4.70;;;3.35;;
82415;SDS011;72058;47.782;10.618;2023-08-20T15:13:24;4.20;;;3.80;;
82415;SDS011;72058;47.782;10.618;2023-08-20T15:15:53;6.15;;;3.55;;
82415;SDS011;72058;47.782;10.618;2023-08-20T15:18:19;4.82;;;3.33;;
82415;SDS011;72058;47.782;10.618;2023-08-20T15:20:44;5.82;;;3.38;;
82415;SDS011;72058;47.782;10.618;2023-08-20T15:23:10;6.05;;;3.47;;
82415;SDS011;72058;47.782;10.618;2023-08-20T15:25:35;4.47;;;3.60;;
82415;SDS011;72058;47.782;10.618;2023-08-20T15:28:01;6.17;;;3.33;;
82415;SDS011;72058;47.782;10.618;2023-08-20T15:30:28;5.97;;;3.65;;
82415;SDS011;72058;47.782;10.618;2023-08-20T15:32:54;5.32;;;3.75;;
82415;SDS011;72058;47.782;10.618;2023-08-20T15:35:19;4.07;;;3.10;;
82415;SDS011;72058;47.782;10.618;2023-08-20T15:37:45;4.53;;;3.50;;
82415;SDS011;72058;47.782;10.618;2023-08-20T15:40:11;6.35;;;3.90;;
82415;SDS011;72058;47.782;10.618;2023-08-20T15:42:39;4.47;;;3.50;;
82415;SDS011;72058;47.782;10.618;2023-08-20T15:45:06;4.13;;;3.53;;
82415;SDS011;72058;47.782;10.618;2023-08-20T15:47:32;4.95;;;3.53;;